Terminal Aerodrome Forecast
Issued by NWS Wilmington, OH

Current Version | Previous Version | Text Only | Print | Product List | Glossary Off
Versions: 1 2 3 4 5 6 7 8 9 10 11 12 13 14 15 16 17 18 19 20

000
FTUS41 KILN 271400 AAA
TAFILN
TAF AMD
KILN 271409Z 2714/2812 22012KT P6SM BKN018
     FM271600 22014G22KT P6SM SCT040
     FM272000 23014G22KT P6SM VCTS BKN050CB
      TEMPO 2720/2722 3SM TSRA BKN030CB
     FM280000 24012KT P6SM FEW040 BKN100
     FM280500 26005KT P6SM FEW050=

USA.gov is the U.S. government's official web portal to all federal, state and local government web resources and services.